Time;durP1;ratioP1;P1;durP2;ratioP2;P2;SDS_P1;SDS_P2;PMS_P1;PMS_P2;Temp;Humidity;BMP_temperature;BMP_pressure;BME280_temperature;BME280_humidity;BME280_pressure;Samples;Min_cycle;Max_cycle;Signal;HPM_P1;HPM_P2
2022/04/30 00:00:29;;;;;;;;;;;;;;;15.37;47.29;101427.78;4922722;28;97991;-65
2022/04/30 00:02:57;;;;;;;;;;;;;;;15.36;47.39;101421.50;4921693;28;99322;-65
2022/04/30 00:05:24;;;;;;;;;;;;;;;15.34;47.44;101426.41;4935762;28;99083;-65
2022/04/30 00:07:49;;;;;;;;;;;;;;;15.33;47.43;101426.69;4920633;28;125074;-63
2022/04/30 00:10:15;;;;;;;;;;;;;;;15.30;47.11;101429.97;4921271;28;122694;-65
2022/04/30 00:12:41;;;;;;;;;;;;;;;15.29;47.38;101421.00;4920852;28;127745;-65
2022/04/30 00:15:08;;;;;;;;;;;;;;;15.27;47.50;101425.06;4920498;28;126851;-65
2022/04/30 00:17:34;;;;;;;;;;;;;;;15.25;47.37;101419.09;4921659;28;123800;-62
2022/04/30 00:20:00;;;;;;;;;;;;;;;15.23;47.36;101424.81;4926408;28;120988;-64
2022/04/30 00:22:26;;;;;;;;;;;;;;;15.20;47.73;101414.47;4934773;28;98400;-63
2022/04/30 00:24:52;;;;;;;;;;;;;;;15.19;47.75;101421.00;4920558;28;127640;-64
2022/04/30 00:27:20;;;;;;;;;;;;;;;15.17;47.61;101417.78;4920923;28;104030;-64
2022/04/30 00:29:46;;;;;;;;;;;;;;;15.15;47.43;101422.66;4921920;28;97903;-63
2022/04/30 00:32:12;;;;;;;;;;;;;;;15.13;47.68;101413.94;4920693;28;99396;-63
2022/04/30 00:34:38;;;;;;;;;;;;;;;15.12;47.64;101409.63;4934770;28;127691;-63
2022/04/30 00:37:04;;;;;;;;;;;;;;;15.11;47.80;101416.16;4921513;28;127545;-65
2022/04/30 00:39:33;;;;;;;;;;;;;;;15.09;47.92;101418.31;4920856;28;120742;-63
2022/04/30 00:41:59;;;;;;;;;;;;;;;15.07;47.68;101415.88;4921154;28;128226;-63
2022/04/30 00:44:25;;;;;;;;;;;;;;;15.05;47.64;101407.22;4921102;28;100296;-63
2022/04/30 00:46:51;;;;;;;;;;;;;;;15.04;48.08;101408.28;4920672;28;128514;-63
2022/04/30 00:49:17;;;;;;;;;;;;;;;15.02;47.67;101412.38;4919712;28;122673;-63
2022/04/30 00:51:46;;;;;;;;;;;;;;;15.01;47.98;101416.16;4920219;28;127959;-64
2022/04/30 00:54:13;;;;;;;;;;;;;;;14.99;48.15;101416.44;4900324;28;98952;-63
2022/04/30 00:56:49;;;;;;;;;;;;;;;14.97;47.96;101410.44;4927094;28;98962;-63
2022/04/30 00:59:19;;;;;;;;;;;;;;;14.93;47.93;101407.50;4926218;28;99651;-62
2022/04/30 01:01:46;;;;;;;;;;;;;;;14.93;47.94;101406.66;4920970;28;98239;-63
2022/04/30 01:04:12;;;;;;;;;;;;;;;14.91;48.30;101415.09;4920536;28;99179;-63
2022/04/30 01:07:00;;;;;;;;;;;;;;;14.89;47.90;101405.59;4920565;28;124269;-62
2022/04/30 01:09:28;;;;;;;;;;;;;;;14.87;48.21;101403.16;4933806;28;97825;-62
2022/04/30 01:12:04;;;;;;;;;;;;;;;14.86;48.06;101400.72;4920162;28;99112;-64
2022/04/30 01:14:31;;;;;;;;;;;;;;;14.83;48.04;101403.97;4920629;28;98916;-63
2022/04/30 01:16:58;;;;;;;;;;;;;;;14.82;48.47;101388.78;4920269;28;99198;-64
2022/04/30 01:19:24;;;;;;;;;;;;;;;14.81;48.08;101396.09;4921321;28;98130;-62
2022/04/30 01:21:56;;;;;;;;;;;;;;;14.78;48.27;101383.09;4937904;28;121058;-64
2022/04/30 01:24:23;;;;;;;;;;;;;;;14.78;48.43;101401.28;4919728;28;125473;-63
2022/04/30 01:26:51;;;;;;;;;;;;;;;14.77;48.52;101396.91;4920323;28;97728;-62
2022/04/30 01:29:20;;;;;;;;;;;;;;;14.75;48.44;101401.81;4920967;28;98161;-63
2022/04/30 01:37:25;;;;;;;;;;;;;;;14.70;48.34;101389.88;4930932;28;97929;-63
2022/04/30 01:40:07;;;;;;;;;;;;;;;14.69;48.34;101387.41;5021213;27;97678;-65
2022/04/30 01:42:35;;;;;;;;;;;;;;;14.66;48.65;101398.84;5018385;27;97857;-64
2022/04/30 01:45:04;;;;;;;;;;;;;;;14.61;48.48;101386.06;5019211;27;98254;-63
2022/04/30 01:47:30;;;;;;;;;;;;;;;14.59;48.64;101390.16;5019266;27;98104;-65
2022/04/30 01:49:56;;;;;;;;;;;;;;;14.55;48.69;101389.88;5017519;27;98374;-62
2022/04/30 01:52:22;;;;;;;;;;;;;;;14.52;48.89;101390.41;5015022;27;110417;-64
2022/04/30 01:54:48;;;;;;;;;;;;;;;14.50;49.07;101392.56;4997492;27;98475;-65
2022/04/30 01:57:21;;;;;;;;;;;;;;;14.47;48.77;101398.53;5029121;27;116138;-62
2022/04/30 01:59:46;;;;;;;;;;;;;;;14.45;49.15;101395.25;5014159;27;98240;-64
2022/04/30 02:02:13;;;;;;;;;;;;;;;14.42;49.14;101387.66;4997994;27;110408;-62
2022/04/30 02:04:39;;;;;;;;;;;;;;;14.41;48.83;101383.31;4997899;27;99076;-63
2022/04/30 02:07:05;;;;;;;;;;;;;;;14.38;48.89;101387.41;4999128;27;103765;-66
2022/04/30 02:09:32;;;;;;;;;;;;;;;14.37;49.10;101383.03;5007163;27;125595;-63
2022/04/30 02:12:01;;;;;;;;;;;;;;;14.35;49.21;101368.97;5020577;27;97846;-65
2022/04/30 02:14:31;;;;;;;;;;;;;;;14.33;49.33;101379.25;4997164;27;99044;-64
2022/04/30 02:16:59;;;;;;;;;;;;;;;14.32;49.37;101376.81;4998802;27;99292;-65
2022/04/30 02:19:27;;;;;;;;;;;;;;;14.28;49.37;101375.72;4998291;27;98260;-63
2022/04/30 02:21:53;;;;;;;;;;;;;;;14.27;49.14;101374.94;5038959;27;98194;-64
2022/04/30 02:24:19;;;;;;;;;;;;;;;14.25;49.34;101368.94;5013241;27;98081;-63
2022/04/30 02:26:45;;;;;;;;;;;;;;;14.23;49.51;101374.66;5017378;27;128256;-64
2022/04/30 02:29:11;;;;;;;;;;;;;;;14.22;49.26;101367.56;5013477;27;99700;-64
2022/04/30 02:31:37;;;;;;;;;;;;;;;14.19;49.67;101365.41;4996551;27;110941;-64
2022/04/30 02:34:03;;;;;;;;;;;;;;;14.18;49.42;101377.34;5010761;27;128382;-64
2022/04/30 02:36:30;;;;;;;;;;;;;;;14.17;49.67;101373.00;5015931;27;127675;-64
2022/04/30 02:38:56;;;;;;;;;;;;;;;14.14;49.53;101362.69;5016592;27;98102;-63
2022/04/30 02:41:23;;;;;;;;;;;;;;;14.14;49.65;101365.41;5019264;27;97731;-63
2022/04/30 02:43:50;;;;;;;;;;;;;;;14.12;49.72;101366.78;5010700;27;113478;-63
2022/04/30 02:46:16;;;;;;;;;;;;;;;14.11;49.61;101351.56;5017000;27;98514;-63
2022/04/30 02:48:43;;;;;;;;;;;;;;;14.09;49.67;101354.56;5018615;27;97928;-63
2022/04/30 02:51:10;;;;;;;;;;;;;;;14.08;49.90;101350.22;5006273;27;97777;-64
2022/04/30 02:53:37;;;;;;;;;;;;;;;14.06;49.74;101352.38;4994418;27;99374;-63
2022/04/30 02:56:06;;;;;;;;;;;;;;;14.05;49.57;101350.75;4995494;27;98418;-63
2022/04/30 03:01:19;;;;;;;;;;;;;;;14.02;50.04;101340.44;5001026;27;98208;-63
2022/04/30 03:03:47;;;;;;;;;;;;;;;14.02;49.89;101345.88;5003231;27;98315;-62
2022/04/30 03:06:14;;;;;;;;;;;;;;;13.99;50.13;101343.72;5004829;27;98166;-62
2022/04/30 03:08:40;;;;;;;;;;;;;;;13.98;50.01;101339.34;5004298;27;98511;-64
2022/04/30 03:11:07;;;;;;;;;;;;;;;13.96;50.06;101342.34;5004677;27;97677;-62
2022/04/30 03:13:34;;;;;;;;;;;;;;;13.94;50.06;101339.06;4995207;27;98757;-62
2022/04/30 03:21:41;;;;;;;;;;;;;;;13.93;50.10;101334.75;4984784;27;98556;-62
2022/04/30 03:21:42;;;;;;;;;;;;;;;13.91;50.26;101345.06;5016751;27;98211;-62
2022/04/30 03:24:08;;;;;;;;;;;;;;;13.90;50.07;101334.47;5010634;27;98246;-62
2022/04/30 03:26:34;;;;;;;;;;;;;;;13.88;50.08;101337.47;4995609;27;98220;-65
2022/04/30 03:29:00;;;;;;;;;;;;;;;13.88;50.31;101333.94;4983134;28;128101;-64
2022/04/30 03:31:28;;;;;;;;;;;;;;;13.88;50.21;101331.22;4984755;27;97840;-64
2022/04/30 03:33:54;;;;;;;;;;;;;;;13.85;50.29;101335.28;4984117;27;98454;-62
2022/04/30 03:36:20;;;;;;;;;;;;;;;13.84;50.20;101333.66;4984209;27;126968;-64
2022/04/30 03:38:47;;;;;;;;;;;;;;;13.83;50.12;101342.03;4982329;28;127332;-64
2022/04/30 03:41:13;;;;;;;;;;;;;;;13.82;50.31;101343.94;4984633;27;98130;-63
2022/04/30 03:43:39;;;;;;;;;;;;;;;13.81;50.55;101339.59;4984180;27;99263;-63
2022/04/30 03:46:05;;;;;;;;;;;;;;;13.81;50.54;101341.50;4984227;27;128415;-63
2022/04/30 03:48:32;;;;;;;;;;;;;;;13.80;50.45;101339.88;4983838;27;98251;-64
2022/04/30 03:50:58;;;;;;;;;;;;;;;13.79;50.38;101341.75;4985547;28;98008;-63
2022/04/30 03:53:24;;;;;;;;;;;;;;;13.78;50.36;101345.56;4981710;28;127625;-63
2022/04/30 03:55:50;;;;;;;;;;;;;;;13.78;50.52;101342.03;4990226;27;128137;-63
2022/04/30 03:58:16;;;;;;;;;;;;;;;13.78;50.48;101342.84;5003396;27;98565;-63
2022/04/30 04:00:43;;;;;;;;;;;;;;;13.75;50.44;101346.91;5003889;27;97680;-65
2022/04/30 04:03:09;;;;;;;;;;;;;;;13.78;50.57;101342.03;4992458;27;98212;-63
2022/04/30 04:05:35;;;;;;;;;;;;;;;13.76;50.50;101339.59;4964010;28;125955;-62
2022/04/30 04:08:01;;;;;;;;;;;;;;;13.77;50.27;101341.22;5000195;27;117381;-62
2022/04/30 04:10:27;;;;;;;;;;;;;;;13.78;50.61;101339.31;5001354;27;111246;-64
2022/04/30 04:17:37;;;;;;;;;;;;;;;13.77;50.65;101341.22;5002248;27;99377;-63
2022/04/30 04:18:23;;;;;;;;;;;;;;;13.79;50.56;101340.94;4980844;28;97814;-63
2022/04/30 04:20:49;;;;;;;;;;;;;;;13.81;50.50;101350.44;5013569;27;110924;-63
2022/04/30 04:23:15;;;;;;;;;;;;;;;13.82;50.66;101340.41;5007421;27;125941;-65
2022/04/30 04:26:00;;;;;;;;;;;;;;;13.83;50.66;101342.03;4980478;28;129145;-63
2022/04/30 04:28:29;;;;;;;;;;;;;;;13.83;50.45;101329.28;4996707;27;98206;-65
2022/04/30 04:30:56;;;;;;;;;;;;;;;13.86;50.50;101330.66;5003602;27;97962;-64
2022/04/30 04:33:22;;;;;;;;;;;;;;;13.87;50.66;101329.56;5002897;27;98070;-64
2022/04/30 04:35:48;;;;;;;;;;;;;;;13.89;50.76;101328.22;5001367;27;128763;-64
2022/04/30 04:38:14;;;;;;;;;;;;;;;13.92;50.90;101341.25;4981950;27;127362;-63
2022/04/30 04:40:40;;;;;;;;;;;;;;;13.94;50.50;101332.84;4982710;27;107982;-63
2022/04/30 04:43:06;;;;;;;;;;;;;;;13.96;50.81;101330.69;4982231;27;128705;-63
2022/04/30 04:45:32;;;;;;;;;;;;;;;14.00;50.63;101331.78;4982079;28;128342;-63
2022/04/30 04:47:58;;;;;;;;;;;;;;;14.04;50.69;101334.78;4982751;27;125859;-64
2022/04/30 04:50:24;;;;;;;;;;;;;;;14.07;50.49;101337.75;4982475;27;110068;-63
2022/04/30 04:52:50;;;;;;;;;;;;;;;14.11;50.64;101335.28;4982203;27;98903;-64
2022/04/30 04:55:16;;;;;;;;;;;;;;;14.14;50.60;101340.19;4981820;28;127872;-65
2022/04/30 04:57:41;;;;;;;;;;;;;;;14.17;50.55;101340.47;5003169;27;116422;-65
2022/04/30 05:00:08;;;;;;;;;;;;;;;14.21;50.59;101340.75;5002157;27;111200;-64
2022/04/30 05:02:35;;;;;;;;;;;;;;;14.27;50.56;101342.38;5001274;27;125017;-63
2022/04/30 05:05:01;;;;;;;;;;;;;;;14.33;50.65;101345.91;5002295;27;98452;-65
2022/04/30 05:07:27;;;;;;;;;;;;;;;14.36;50.35;101340.75;5001528;27;120301;-65
2022/04/30 05:09:52;;;;;;;;;;;;;;;14.43;50.54;101345.91;5001983;27;110809;-63
2022/04/30 05:12:19;;;;;;;;;;;;;;;14.48;50.59;101344.00;5001611;27;116509;-63
2022/04/30 05:14:46;;;;;;;;;;;;;;;14.54;50.38;101342.13;5000714;27;128155;-63
2022/04/30 05:17:13;;;;;;;;;;;;;;;14.59;50.42;101350.28;4993666;27;98326;-63
2022/04/30 05:19:39;;;;;;;;;;;;;;;14.66;50.39;101344.56;4987518;27;97901;-64
2022/04/30 05:22:05;;;;;;;;;;;;;;;14.70;50.54;101342.94;5022336;27;105045;-65
2022/04/30 05:24:31;;;;;;;;;;;;;;;14.77;50.21;101343.44;5001204;27;101218;-64
2022/04/30 05:26:57;;;;;;;;;;;;;;;14.81;50.50;101352.66;4980595;27;118385;-62
2022/04/30 05:29:22;;;;;;;;;;;;;;;14.88;50.39;101355.09;4978314;27;105623;-63
2022/04/30 05:31:48;;;;;;;;;;;;;;;14.93;50.64;101361.34;4977021;27;127564;-64
2022/04/30 05:34:14;;;;;;;;;;;;;;;14.98;50.48;101353.19;4976055;27;127314;-62
2022/04/30 05:36:40;;;;;;;;;;;;;;;15.03;50.44;101359.69;4981601;27;98143;-64
2022/04/30 05:39:06;;;;;;;;;;;;;;;15.08;50.49;101357.75;4979364;27;108641;-65
2022/04/30 05:41:32;;;;;;;;;;;;;;;15.13;50.19;101352.34;4977247;27;127554;-63
2022/04/30 05:43:58;;;;;;;;;;;;;;;15.19;50.61;101353.13;4984013;27;127301;-64
2022/04/30 05:46:24;;;;;;;;;;;;;;;15.23;50.50;101349.56;4978732;27;127707;-62
2022/04/30 05:48:50;;;;;;;;;;;;;;;15.29;50.39;101344.94;4984219;27;112474;-63
2022/04/30 05:51:16;;;;;;;;;;;;;;;15.36;50.23;101347.34;4977778;27;127043;-62
2022/04/30 05:53:42;;;;;;;;;;;;;;;15.41;50.41;101340.00;4974315;27;128769;-63
2022/04/30 05:56:08;;;;;;;;;;;;;;;15.50;50.40;101336.72;4977997;27;108887;-64
2022/04/30 05:58:34;;;;;;;;;;;;;;;15.62;50.13;101343.44;4979472;27;99307;-62
2022/04/30 06:01:01;;;;;;;;;;;;;;;15.75;50.08;101344.75;4976585;27;123148;-65
2022/04/30 06:03:29;;;;;;;;;;;;;;;15.87;50.21;101345.22;4977186;27;97962;-62
2022/04/30 06:05:55;;;;;;;;;;;;;;;15.99;50.01;101333.19;4977858;27;98070;-64
2022/04/30 06:08:21;;;;;;;;;;;;;;;16.07;50.10;101338.84;4977734;27;106251;-62
2022/04/30 06:10:47;;;;;;;;;;;;;;;16.16;49.79;101337.13;4977356;27;119308;-62
2022/04/30 06:13:13;;;;;;;;;;;;;;;16.24;49.98;101341.16;4976251;27;128627;-63
2022/04/30 06:15:39;;;;;;;;;;;;;;;16.32;49.62;101342.47;4976658;27;126601;-64
2022/04/30 06:18:05;;;;;;;;;;;;;;;16.39;49.93;101341.03;4977569;27;112476;-64
2022/04/30 06:20:31;;;;;;;;;;;;;;;16.47;49.67;101344.25;4978181;27;114431;-65
2022/04/30 06:22:58;;;;;;;;;;;;;;;16.53;49.72;101345.81;4977687;27;99201;-62
2022/04/30 06:25:23;;;;;;;;;;;;;;;16.60;49.41;101349.81;4978859;27;98728;-62
2022/04/30 06:27:49;;;;;;;;;;;;;;;16.66;49.49;101351.41;4980830;27;108774;-62
2022/04/30 06:30:15;;;;;;;;;;;;;;;16.75;49.39;101354.34;4979732;27;127301;-63
2022/04/30 06:32:41;;;;;;;;;;;;;;;16.81;49.41;101355.91;4980347;27;98831;-62
2022/04/30 06:35:08;;;;;;;;;;;;;;;16.90;49.26;101353.41;4978912;27;128171;-65
2022/04/30 06:37:33;;;;;;;;;;;;;;;16.99;49.17;101354.38;4981294;27;98210;-63
2022/04/30 06:39:59;;;;;;;;;;;;;;;17.08;49.06;101354.56;4979788;27;115684;-65
2022/04/30 06:42:25;;;;;;;;;;;;;;;17.17;48.92;101355.53;4979708;27;128622;-64
2022/04/30 06:44:52;;;;;;;;;;;;;;;17.28;49.04;101358.94;4983324;27;98013;-63
2022/04/30 06:47:21;;;;;;;;;;;;;;;17.37;48.61;101358.03;4981611;27;97839;-64
2022/04/30 06:49:50;;;;;;;;;;;;;;;17.48;48.57;101366.88;4980150;27;98590;-65
2022/04/30 06:52:16;;;;;;;;;;;;;;;17.59;48.37;101371.09;4980269;27;98900;-65
2022/04/30 06:57:27;;;;;;;;;;;;;;;17.83;48.26;101367.53;4991464;27;98146;-64
2022/04/30 06:59:55;;;;;;;;;;;;;;;17.94;48.03;101365.47;4985534;27;128090;-63
2022/04/30 07:02:26;;;;;;;;;;;;;;;18.02;47.76;101359.34;4980745;27;99324;-62
2022/04/30 07:04:52;;;;;;;;;;;;;;;18.12;47.67;101370.13;4979619;27;98043;-64
2022/04/30 07:07:18;;;;;;;;;;;;;;;18.17;47.59;101359.13;4983581;27;98589;-62
2022/04/30 07:09:44;;;;;;;;;;;;;;;18.25;47.54;101363.09;4979224;27;98355;-64
2022/04/30 07:12:13;;;;;;;;;;;;;;;18.32;47.40;101364.34;4982329;27;128067;-64
2022/04/30 07:14:40;;;;;;;;;;;;;;;18.39;47.60;101359.31;4980215;27;99030;-64
2022/04/30 07:17:07;;;;;;;;;;;;;;;18.48;47.34;101362.19;4983112;27;97882;-62
2022/04/30 07:19:33;;;;;;;;;;;;;;;18.57;47.28;101356.84;4983488;27;128705;-62
2022/04/30 07:21:59;;;;;;;;;;;;;;;18.69;47.30;101356.34;4992989;27;119352;-64
2022/04/30 07:24:25;;;;;;;;;;;;;;;18.81;47.01;101357.50;4977612;27;98272;-65
2022/04/30 07:26:51;;;;;;;;;;;;;;;18.97;46.96;101346.31;4980644;27;98210;-64
2022/04/30 07:29:17;;;;;;;;;;;;;;;19.12;46.93;101356.94;4982370;27;98796;-65
2022/04/30 07:31:43;;;;;;;;;;;;;;;19.25;46.86;101356.13;4979428;27;98645;-62
2022/04/30 07:34:09;;;;;;;;;;;;;;;19.40;46.43;101355.00;4978106;27;128265;-65
2022/04/30 07:36:38;;;;;;;;;;;;;;;19.57;46.45;101359.84;4980327;27;98238;-63
2022/04/30 07:39:04;;;;;;;;;;;;;;;19.76;46.23;101360.53;4982657;27;118769;-62
2022/04/30 07:41:30;;;;;;;;;;;;;;;19.98;46.26;101370.72;4979004;27;125411;-65
2022/04/30 07:43:56;;;;;;;;;;;;;;;20.26;45.83;101365.94;4979524;27;97914;-62
2022/04/30 07:46:25;;;;;;;;;;;;;;;20.54;45.82;101363.91;4979904;27;105622;-63
2022/04/30 07:48:51;;;;;;;;;;;;;;;20.89;45.57;101371.53;4979666;27;99893;-62
2022/04/30 07:51:23;;;;;;;;;;;;;;;21.14;45.46;101365.31;4980918;27;101754;-65
2022/04/30 07:53:49;;;;;;;;;;;;;;;21.40;45.43;101368.19;4978298;27;98685;-63
2022/04/30 07:56:15;;;;;;;;;;;;;;;21.63;45.50;101368.91;4985074;27;101393;-65
2022/04/30 07:58:41;;;;;;;;;;;;;;;21.76;45.64;101372.63;4982263;27;98673;-64
2022/04/30 08:01:07;;;;;;;;;;;;;;;21.84;45.88;101371.81;4978830;27;99814;-62
2022/04/30 08:03:33;;;;;;;;;;;;;;;21.90;45.99;101383.47;4986892;27;97969;-64
2022/04/30 08:06:00;;;;;;;;;;;;;;;21.92;46.21;101376.50;4979744;27;109420;-63
2022/04/30 08:08:25;;;;;;;;;;;;;;;21.98;46.09;101372.47;4975681;27;128998;-63
2022/04/30 08:10:51;;;;;;;;;;;;;;;22.05;46.44;101375.56;4987958;27;128158;-63
2022/04/30 08:13:17;;;;;;;;;;;;;;;22.18;46.32;101371.06;4977549;27;126284;-65
2022/04/30 08:15:43;;;;;;;;;;;;;;;22.28;46.41;101372.66;4980036;27;97839;-64
2022/04/30 08:18:10;;;;;;;;;;;;;;;22.36;46.34;101371.03;4985244;27;127058;-65
2022/04/30 08:20:39;;;;;;;;;;;;;;;22.42;46.50;101367.00;4985187;27;99060;-65
2022/04/30 08:23:06;;;;;;;;;;;;;;;22.48;46.68;101366.50;4978144;27;127051;-63
2022/04/30 08:25:33;;;;;;;;;;;;;;;22.61;46.42;101369.38;4980421;27;98088;-65
2022/04/30 08:27:59;;;;;;;;;;;;;;;22.73;46.52;101373.06;4978540;27;98922;-63
2022/04/30 08:30:25;;;;;;;;;;;;;;;22.89;46.29;101373.31;4980896;27;110774;-65
2022/04/30 08:32:51;;;;;;;;;;;;;;;23.14;46.23;101362.59;4979037;27;98007;-65
2022/04/30 08:35:17;;;;;;;;;;;;;;;23.42;45.83;101369.25;4979232;27;99227;-65
2022/04/30 08:37:42;;;;;;;;;;;;;;;23.59;46.05;101362.81;4978234;27;127897;-61
2022/04/30 08:40:09;;;;;;;;;;;;;;;23.73;45.94;101370.84;4977910;27;127631;-65
2022/04/30 08:42:35;;;;;;;;;;;;;;;24.09;45.50;101370.25;4981504;27;98827;-62
2022/04/30 08:45:03;;;;;;;;;;;;;;;24.27;45.48;101376.38;4978300;27;113350;-62
2022/04/30 08:47:29;;;;;;;;;;;;;;;24.43;45.53;101366.38;4977270;27;112786;-62
2022/04/30 08:49:55;;;;;;;;;;;;;;;24.61;45.36;101358.75;4978352;27;123873;-65
2022/04/30 08:52:21;;;;;;;;;;;;;;;25.02;44.95;101358.91;4985646;27;112664;-63
2022/04/30 08:54:47;;;;;;;;;;;;;;;25.30;44.76;101359.84;4977240;27;112544;-62
2022/04/30 08:57:14;;;;;;;;;;;;;;;25.20;45.30;101357.56;4992999;27;129400;-62
2022/04/30 08:59:40;;;;;;;;;;;;;;;25.16;45.59;101351.16;4985814;27;99304;-65
2022/04/30 09:02:10;;;;;;;;;;;;;;;25.12;45.89;101359.28;4981032;27;124890;-62
2022/04/30 09:04:43;;;;;;;;;;;;;;;25.05;45.64;101356.28;4979487;27;98352;-65
2022/04/30 09:07:20;;;;;;;;;;;;;;;25.06;45.86;101355.13;4980038;27;98623;-63
2022/04/30 09:09:53;;;;;;;;;;;;;;;25.14;45.75;101361.69;4977555;27;126303;-63
2022/04/30 09:12:19;;;;;;;;;;;;;;;25.37;45.60;101353.75;4981475;27;114687;-63
2022/04/30 09:14:45;;;;;;;;;;;;;;;25.77;45.28;101345.50;4976003;27;113636;-62
2022/04/30 09:17:12;;;;;;;;;;;;;;;26.03;45.00;101347.09;4976814;27;98346;-66
2022/04/30 09:19:54;;;;;;;;;;;;;;;26.23;44.85;101342.50;4983636;27;99904;-63
2022/04/30 09:22:36;;;;;;;;;;;;;;;26.64;44.50;101342.06;4985468;27;98298;-63
2022/04/30 09:25:09;;;;;;;;;;;;;;;27.10;43.92;101344.38;4976884;27;97989;-65
2022/04/30 09:27:51;;;;;;;;;;;;;;;27.49;43.56;101338.97;4977932;27;98530;-62
2022/04/30 09:30:18;;;;;;;;;;;;;;;27.92;43.28;101342.69;4976194;27;98418;-64
2022/04/30 09:32:44;;;;;;;;;;;;;;;28.30;42.63;101344.63;4982574;27;98119;-64
2022/04/30 09:38:04;;;;;;;;;;;;;;;28.91;41.95;101335.44;4975297;27;98188;-65
2022/04/30 09:40:30;;;;;;;;;;;;;;;29.53;40.14;101336.00;4977793;27;118897;-65
2022/04/30 09:42:56;;;;;;;;;;;;;;;30.25;38.36;101334.13;4982447;27;126448;-65
2022/04/30 09:45:30;;;;;;;;;;;;;;;30.46;37.88;101337.13;4976079;27;98666;-62
2022/04/30 09:47:57;;;;;;;;;;;;;;;30.41;37.45;101339.44;4977487;27;98111;-62
2022/04/30 09:55:54;;;;;;;;;;;;;;;30.19;35.87;101319.78;4985571;27;97756;-62
2022/04/30 09:58:24;;;;;;;;;;;;;;;30.35;35.47;101319.53;4981075;27;98834;-64
2022/04/30 10:00:55;;;;;;;;;;;;;;;30.01;35.79;101316.75;4984763;27;98987;-65
2022/04/30 10:03:26;;;;;;;;;;;;;;;29.59;36.12;101320.66;4983391;27;98685;-65
2022/04/30 10:05:59;;;;;;;;;;;;;;;29.06;35.99;101317.06;4982259;27;98003;-65
2022/04/30 10:08:25;;;;;;;;;;;;;;;28.57;35.99;101312.25;4980924;27;99396;-65
2022/04/30 10:10:53;;;;;;;;;;;;;;;28.10;36.45;101313.38;4980394;27;128650;-62
2022/04/30 10:13:50;;;;;;;;;;;;;;;27.69;36.38;101298.28;4983986;27;98077;-64
2022/04/30 10:16:25;;;;;;;;;;;;;;;27.23;36.39;101303.59;4995038;27;98583;-65
2022/04/30 10:19:10;;;;;;;;;;;;;;;26.86;36.72;101292.84;4980960;27;98712;-63
2022/04/30 10:21:37;;;;;;;;;;;;;;;26.55;36.55;101299.97;4995846;27;97702;-63
2022/04/30 10:24:04;;;;;;;;;;;;;;;26.34;36.77;101289.16;4980431;27;98312;-63
2022/04/30 10:26:30;;;;;;;;;;;;;;;26.21;36.61;101290.34;4981210;27;98098;-63
2022/04/30 10:29:10;;;;;;;;;;;;;;;26.08;36.75;101295.16;4979375;27;127463;-64
2022/04/30 10:31:45;;;;;;;;;;;;;;;25.92;36.41;101288.78;4987910;27;98232;-62
2022/04/30 10:34:12;;;;;;;;;;;;;;;25.79;36.56;101290.00;4986717;27;127217;-62
2022/04/30 10:36:39;;;;;;;;;;;;;;;25.74;36.27;101292.97;4982635;27;97810;-64
2022/04/30 10:39:09;;;;;;;;;;;;;;;25.81;36.04;101294.00;4980421;27;98717;-63
2022/04/30 10:41:48;;;;;;;;;;;;;;;26.08;35.85;101284.09;4981455;27;98803;-64
2022/04/30 10:44:14;;;;;;;;;;;;;;;26.34;35.27;101282.81;4979229;27;123759;-64
2022/04/30 10:46:45;;;;;;;;;;;;;;;26.55;35.18;101282.59;4978381;27;108977;-64
2022/04/30 10:49:11;;;;;;;;;;;;;;;26.59;34.96;101277.94;4981487;27;99280;-65
2022/04/30 10:51:44;;;;;;;;;;;;;;;26.63;35.04;101284.38;4988052;27;112117;-64
2022/04/30 10:54:13;;;;;;;;;;;;;;;26.68;34.99;101278.56;4980689;27;98025;-63
2022/04/30 10:56:39;;;;;;;;;;;;;;;26.69;34.86;101271.91;4983763;27;98095;-64
2022/04/30 10:59:05;;;;;;;;;;;;;;;27.00;34.34;101279.34;4981547;27;98559;-64
2022/04/30 11:01:31;;;;;;;;;;;;;;;27.56;33.82;101270.72;4997973;27;98350;-65
2022/04/30 11:03:57;;;;;;;;;;;;;;;28.22;33.17;101274.44;4978978;27;101098;-62
2022/04/30 11:06:24;;;;;;;;;;;;;;;29.04;32.25;101270.28;4981598;27;98203;-64
2022/04/30 11:09:00;;;;;;;;;;;;;;;29.83;31.76;101272.13;4979725;27;99170;-63
2022/04/30 11:11:26;;;;;;;;;;;;;;;30.42;31.59;101268.75;4982110;27;98718;-64
2022/04/30 11:14:11;;;;;;;;;;;;;;;30.72;31.60;101263.03;4980134;27;100069;-64
2022/04/30 11:16:41;;;;;;;;;;;;;;;31.27;31.12;101258.25;4981166;27;97927;-62
2022/04/30 11:19:09;;;;;;;;;;;;;;;31.61;30.78;101255.25;4979971;27;98217;-63
2022/04/30 11:21:51;;;;;;;;;;;;;;;31.67;30.84;101252.88;4981144;27;99356;-62
2022/04/30 11:24:31;;;;;;;;;;;;;;;31.86;30.69;101246.97;4980303;27;98490;-65
2022/04/30 11:26:59;;;;;;;;;;;;;;;32.41;30.19;101248.69;4985669;27;98107;-62
2022/04/30 11:29:25;;;;;;;;;;;;;;;32.87;29.47;101245.06;4979080;27;98453;-65
2022/04/30 11:31:54;;;;;;;;;;;;;;;32.91;29.66;101243.84;4981310;27;127712;-65
2022/04/30 11:34:20;;;;;;;;;;;;;;;32.29;30.21;101237.88;4977139;27;98239;-61
2022/04/30 11:36:47;;;;;;;;;;;;;;;31.77;30.20;101235.41;4978640;27;98107;-63
2022/04/30 11:39:13;;;;;;;;;;;;;;;31.35;30.45;101233.25;4977566;27;98501;-64
2022/04/30 11:41:43;;;;;;;;;;;;;;;30.97;29.99;101229.84;4981498;27;124820;-62
2022/04/30 11:44:12;;;;;;;;;;;;;;;30.49;30.32;101229.88;4978499;27;124852;-62
2022/04/30 11:46:42;;;;;;;;;;;;;;;30.53;29.99;101223.16;4978247;27;97909;-64
2022/04/30 11:49:18;;;;;;;;;;;;;;;30.46;29.68;101216.78;4978835;27;99148;-63
2022/04/30 11:51:44;;;;;;;;;;;;;;;30.18;30.18;101217.31;4984807;27;126396;-64
2022/04/30 11:54:11;;;;;;;;;;;;;;;30.07;30.09;101215.22;4976690;27;124810;-62
2022/04/30 11:56:38;;;;;;;;;;;;;;;30.20;29.85;101201.06;4992238;27;97911;-62
2022/04/30 11:59:04;;;;;;;;;;;;;;;30.37;29.58;101205.16;4984251;27;98750;-64
2022/04/30 12:01:31;;;;;;;;;;;;;;;30.53;29.95;101202.91;4979173;27;125682;-64
2022/04/30 12:04:05;;;;;;;;;;;;;;;30.91;29.44;101209.16;4982331;27;97992;-64
2022/04/30 12:06:31;;;;;;;;;;;;;;;30.75;29.47;101207.47;4982509;27;98054;-64
2022/04/30 12:08:57;;;;;;;;;;;;;;;31.00;29.36;101204.03;4977645;27;99377;-62
2022/04/30 12:11:23;;;;;;;;;;;;;;;31.25;29.12;101206.94;4978301;27;127990;-64
2022/04/30 12:13:58;;;;;;;;;;;;;;;31.37;29.14;101208.63;4978854;27;98394;-64
2022/04/30 12:16:24;;;;;;;;;;;;;;;31.39;29.24;101201.44;4986659;27;112409;-62
2022/04/30 12:24:41;;;;;;;;;;;;;;;30.19;29.87;101186.38;4980067;27;98164;-64
2022/04/30 12:27:09;;;;;;;;;;;;;;;29.92;30.06;101180.13;4985909;27;98603;-64
2022/04/30 12:29:35;;;;;;;;;;;;;;;29.83;29.82;101182.44;4978087;27;98444;-62
2022/04/30 12:32:08;;;;;;;;;;;;;;;29.66;29.67;101183.84;4978166;27;99371;-64
2022/04/30 12:34:37;;;;;;;;;;;;;;;29.57;29.45;101180.56;4978357;27;98411;-62
2022/04/30 12:37:04;;;;;;;;;;;;;;;29.52;29.46;101181.69;4979073;27;107471;-64
2022/04/30 12:39:29;;;;;;;;;;;;;;;29.52;29.61;101173.34;4977206;27;127540;-62
2022/04/30 12:41:59;;;;;;;;;;;;;;;29.64;29.61;101166.75;4978722;27;127186;-62
2022/04/30 12:44:25;;;;;;;;;;;;;;;29.69;29.63;101163.63;4978990;27;98157;-64
2022/04/30 12:46:51;;;;;;;;;;;;;;;29.74;29.47;101166.06;4979943;27;98084;-62
2022/04/30 12:49:20;;;;;;;;;;;;;;;29.88;29.51;101167.41;4976697;27;108841;-62
2022/04/30 12:51:48;;;;;;;;;;;;;;;30.22;28.97;101163.38;4986686;27;99011;-64
2022/04/30 12:54:16;;;;;;;;;;;;;;;30.48;29.24;101154.00;4979046;27;98146;-62
2022/04/30 12:56:43;;;;;;;;;;;;;;;30.66;28.75;101159.69;4986097;27;98907;-62
2022/04/30 12:59:10;;;;;;;;;;;;;;;30.27;28.97;101151.88;4979813;27;99087;-64
2022/04/30 13:01:37;;;;;;;;;;;;;;;29.89;29.27;101149.53;4981497;27;98864;-64
2022/04/30 13:04:03;;;;;;;;;;;;;;;29.48;29.98;101155.84;4975961;27;98024;-62
2022/04/30 13:06:29;;;;;;;;;;;;;;;29.32;29.83;101150.53;4979203;27;111602;-63